Time;durP1;ratioP1;P1;durP2;ratioP2;P2;SDS_P1;SDS_P2;PMS_P1;PMS_P2;Temp;Humidity;BMP_temperature;BMP_pressure;BME280_temperature;BME280_humidity;BME280_pressure;Samples;Min_cycle;Max_cycle;Signal;HPM_P1;HPM_P2
2021/09/01 00:02:10;;;;;;;6.40;2.08;;;18.00;84.60;;;;;;5033971;28;20028;-74
2021/09/01 00:04:35;;;;;;;4.03;1.80;;;18.00;84.40;;;;;;5033184;28;20022;-75
2021/09/01 00:07:01;;;;;;;7.03;1.90;;;18.00;84.40;;;;;;5033972;28;20075;-74
2021/09/01 00:09:27;;;;;;;5.53;1.80;;;18.00;84.40;;;;;;5033358;28;20017;-74
2021/09/01 00:11:54;;;;;;;7.15;1.85;;;18.00;84.30;;;;;;5033879;28;20029;-74
2021/09/01 00:14:20;;;;;;;6.93;1.60;;;18.00;84.60;;;;;;5032466;28;20021;-73
2021/09/01 00:16:46;;;;;;;4.75;1.70;;;18.00;84.20;;;;;;5033177;28;20101;-73
2021/09/01 00:19:12;;;;;;;8.27;1.75;;;17.90;84.10;;;;;;5033520;28;20152;-73
2021/09/01 00:21:38;;;;;;;3.03;1.00;;;17.90;84.00;;;;;;5032691;28;20388;-74
2021/09/01 00:24:05;;;;;;;5.90;1.40;;;17.90;84.10;;;;;;5033711;28;20480;-74
2021/09/01 00:26:31;;;;;;;3.85;1.60;;;17.90;84.10;;;;;;5033102;28;20044;-74
2021/09/01 00:28:58;;;;;;;5.25;1.88;;;17.90;84.10;;;;;;5033705;28;20458;-74
2021/09/01 00:31:24;;;;;;;4.28;1.42;;;17.90;84.00;;;;;;5033504;28;20143;-74
2021/09/01 00:33:50;;;;;;;3.38;1.45;;;17.90;84.00;;;;;;5033524;28;20021;-74
2021/09/01 00:36:16;;;;;;;6.07;1.58;;;17.90;83.90;;;;;;5033508;28;20481;-74
2021/09/01 00:38:43;;;;;;;4.28;1.30;;;17.90;83.80;;;;;;5031558;28;20040;-74
2021/09/01 00:41:19;;;;;;;8.55;1.50;;;17.90;83.70;;;;;;5033304;28;20029;-73
2021/09/01 00:43:47;;;;;;;7.70;1.52;;;18.00;83.70;;;;;;5031430;28;20711;-73
2021/09/01 00:46:12;;;;;;;6.47;1.88;;;18.00;83.70;;;;;;5033009;28;20359;-73
2021/09/01 00:48:38;;;;;;;6.80;1.70;;;18.00;83.70;;;;;;5032604;28;20033;-74
2021/09/01 00:51:04;;;;;;;5.93;1.50;;;18.00;83.70;;;;;;5033568;28;20030;-73
2021/09/01 00:53:34;;;;;;;6.25;1.80;;;18.00;83.80;;;;;;5032553;28;20064;-74
2021/09/01 00:56:00;;;;;;;5.93;1.58;;;18.00;83.80;;;;;;5033077;28;20017;-73
2021/09/01 00:58:26;;;;;;;5.70;1.60;;;18.00;83.60;;;;;;5032929;28;20105;-74
2021/09/01 01:03:36;;;;;;;5.15;1.35;;;18.00;83.60;;;;;;5032082;28;20108;-74
2021/09/01 01:06:02;;;;;;;6.32;1.98;;;18.00;83.70;;;;;;5033401;28;20104;-74
2021/09/01 01:08:30;;;;;;;8.07;1.40;;;18.00;83.70;;;;;;5032179;28;20369;-74
2021/09/01 01:10:59;;;;;;;5.78;2.17;;;18.00;83.80;;;;;;5032854;28;20025;-74
2021/09/01 01:13:29;;;;;;;8.55;1.85;;;18.00;83.80;;;;;;5031400;28;20386;-74
2021/09/01 01:15:58;;;;;;;6.90;1.70;;;18.00;83.90;;;;;;5031958;28;20022;-74
2021/09/01 01:18:24;;;;;;;4.28;1.45;;;18.00;83.80;;;;;;5032300;28;20021;-74
2021/09/01 01:20:51;;;;;;;6.53;1.70;;;18.10;83.90;;;;;;5031625;28;20064;-74
2021/09/01 01:23:18;;;;;;;6.70;1.50;;;18.00;83.70;;;;;;5032568;28;20028;-72
2021/09/01 01:25:44;;;;;;;3.58;1.55;;;18.00;83.80;;;;;;5029856;28;20055;-73
2021/09/01 01:28:11;;;;;;;6.10;1.58;;;18.00;83.90;;;;;;5031109;28;20529;-73
2021/09/01 01:30:38;;;;;;;5.53;1.40;;;18.00;83.80;;;;;;5031786;28;20474;-72
2021/09/01 01:33:04;;;;;;;2.97;1.48;;;18.00;83.80;;;;;;5032096;28;20025;-73
2021/09/01 01:35:32;;;;;;;5.47;1.33;;;18.00;83.90;;;;;;5031712;28;20021;-73
2021/09/01 01:38:00;;;;;;;3.83;1.70;;;18.00;83.90;;;;;;5032598;28;20030;-73
2021/09/01 01:40:26;;;;;;;4.47;1.80;;;18.00;84.00;;;;;;5032212;28;20100;-74
2021/09/01 01:42:54;;;;;;;7.35;2.10;;;18.00;84.00;;;;;;5029919;28;20129;-73
2021/09/01 01:45:22;;;;;;;9.43;1.90;;;18.00;84.00;;;;;;5032202;28;20096;-73
2021/09/01 01:47:48;;;;;;;6.35;1.67;;;18.00;83.90;;;;;;5031363;28;20473;-73
2021/09/01 01:50:14;;;;;;;8.48;1.95;;;18.00;83.90;;;;;;5032123;28;20025;-73
2021/09/01 01:52:40;;;;;;;3.13;1.60;;;18.00;83.80;;;;;;5031477;28;20378;-73
2021/09/01 01:55:09;;;;;;;6.18;1.77;;;18.00;83.80;;;;;;5032311;28;20083;-73
2021/09/01 01:57:35;;;;;;;4.28;1.65;;;18.00;84.00;;;;;;5030200;28;20075;-73
2021/09/01 02:00:02;;;;;;;3.80;1.83;;;18.00;84.00;;;;;;5032130;28;20025;-73
2021/09/01 02:02:30;;;;;;;4.57;1.70;;;18.00;83.90;;;;;;5031982;28;20068;-73
2021/09/01 02:05:00;;;;;;;5.03;1.70;;;18.00;84.10;;;;;;5032139;28;20116;-73
2021/09/01 02:07:27;;;;;;;5.20;1.60;;;18.00;83.90;;;;;;5032012;28;20017;-72
2021/09/01 02:09:53;;;;;;;6.40;1.92;;;18.00;83.90;;;;;;5031127;28;20074;-73
2021/09/01 02:12:19;;;;;;;3.92;1.63;;;18.00;83.80;;;;;;5031619;28;20112;-73
2021/09/01 02:14:45;;;;;;;5.25;1.40;;;17.90;83.80;;;;;;5031055;28;20378;-73
2021/09/01 02:17:10;;;;;;;6.53;2.22;;;17.90;83.90;;;;;;5031984;28;20097;-73
2021/09/01 02:19:36;;;;;;;5.20;1.55;;;17.90;84.00;;;;;;5030857;28;20029;-73
2021/09/01 02:22:02;;;;;;;6.22;1.75;;;17.90;84.00;;;;;;5031474;28;20057;-72
2021/09/01 02:24:28;;;;;;;2.50;1.20;;;18.00;84.10;;;;;;5031791;28;20101;-73
2021/09/01 02:26:54;;;;;;;5.50;1.77;;;18.00;84.10;;;;;;5031350;28;20147;-73
2021/09/01 02:29:19;;;;;;;7.13;1.90;;;18.00;84.20;;;;;;5031676;28;20054;-73
2021/09/01 02:31:45;;;;;;;5.03;1.50;;;18.00;84.20;;;;;;5029835;28;20479;-73
2021/09/01 02:34:11;;;;;;;2.15;1.20;;;18.00;84.30;;;;;;5031914;28;20508;-74
2021/09/01 02:36:37;;;;;;;3.67;1.60;;;18.00;84.40;;;;;;5030051;28;20029;-73
2021/09/01 02:39:03;;;;;;;4.13;1.48;;;18.00;84.40;;;;;;5034401;28;20025;-74
2021/09/01 02:41:29;;;;;;;5.32;1.65;;;18.00;84.40;;;;;;5035512;28;20067;-73
2021/09/01 02:43:54;;;;;;;3.53;1.60;;;17.90;84.30;;;;;;5035069;28;20053;-73
2021/09/01 02:46:21;;;;;;;7.78;2.00;;;17.90;84.30;;;;;;5035642;28;20034;-73
2021/09/01 02:48:46;;;;;;;4.30;1.85;;;17.90;84.40;;;;;;5034835;28;20095;-74
2021/09/01 02:51:12;;;;;;;4.63;1.88;;;17.90;84.40;;;;;;5035849;28;20416;-73
2021/09/01 02:53:38;;;;;;;4.47;1.40;;;17.90;84.40;;;;;;5035115;28;20017;-73
2021/09/01 02:56:04;;;;;;;4.32;1.58;;;17.80;84.40;;;;;;5033678;28;20064;-74
2021/09/01 02:58:30;;;;;;;6.07;1.88;;;17.80;84.40;;;;;;5033917;28;20073;-74
2021/09/01 03:00:55;;;;;;;8.00;2.38;;;17.80;84.50;;;;;;5034657;28;20029;-73
2021/09/01 03:03:21;;;;;;;6.28;2.22;;;17.80;84.40;;;;;;5035203;28;20056;-73
2021/09/01 03:05:47;;;;;;;8.13;2.03;;;17.80;84.40;;;;;;5034551;28;20062;-73
2021/09/01 03:08:13;;;;;;;4.43;2.13;;;17.90;85.00;;;;;;5035031;28;20029;-74
2021/09/01 03:10:38;;;;;;;3.35;1.17;;;17.90;84.50;;;;;;5034558;28;20091;-73
2021/09/01 03:13:04;;;;;;;7.25;2.20;;;17.90;84.60;;;;;;5034669;28;20354;-73
2021/09/01 03:15:31;;;;;;;4.43;1.88;;;17.80;84.60;;;;;;5035025;28;20458;-73
2021/09/01 03:17:56;;;;;;;6.80;2.08;;;17.90;84.60;;;;;;5034602;28;20389;-73
2021/09/01 03:20:22;;;;;;;3.30;1.50;;;17.90;84.60;;;;;;5034597;28;20025;-73
2021/09/01 03:22:48;;;;;;;4.10;1.73;;;17.90;84.60;;;;;;5033922;28;20184;-73
2021/09/01 03:25:14;;;;;;;5.93;1.88;;;17.80;84.50;;;;;;5034758;28;20028;-73
2021/09/01 03:27:39;;;;;;;6.20;1.88;;;17.90;84.60;;;;;;5034219;28;20030;-74
2021/09/01 03:30:05;;;;;;;4.30;1.70;;;17.80;84.60;;;;;;5034419;28;20051;-74
2021/09/01 03:32:31;;;;;;;2.88;1.50;;;17.80;84.60;;;;;;5034599;28;20495;-73
2021/09/01 03:34:57;;;;;;;5.65;1.80;;;17.90;84.50;;;;;;5033723;28;20105;-73
2021/09/01 03:37:23;;;;;;;4.50;1.83;;;17.80;84.50;;;;;;5034399;28;20359;-74
2021/09/01 03:39:49;;;;;;;8.30;1.83;;;17.80;84.60;;;;;;5033915;28;20033;-74
2021/09/01 03:42:15;;;;;;;4.55;2.38;;;17.80;84.50;;;;;;5033885;28;20053;-76
2021/09/01 03:44:40;;;;;;;4.50;1.77;;;17.80;84.40;;;;;;5033746;28;20044;-75
2021/09/01 03:47:06;;;;;;;6.40;2.05;;;17.80;84.40;;;;;;5041211;28;20021;-76
2021/09/01 03:49:32;;;;;;;5.78;1.90;;;17.80;84.40;;;;;;5039279;28;20045;-75
2021/09/01 03:51:58;;;;;;;5.60;1.92;;;17.80;85.10;;;;;;5036539;28;20523;-75
2021/09/01 03:54:23;;;;;;;4.60;1.70;;;17.80;84.50;;;;;;5036433;28;20374;-75
2021/09/01 03:56:49;;;;;;;5.72;2.10;;;17.80;84.40;;;;;;5044233;28;20519;-75
2021/09/01 03:59:15;;;;;;;6.85;1.65;;;17.80;84.50;;;;;;5043143;28;20044;-74
2021/09/01 04:01:40;;;;;;;2.78;1.48;;;17.80;84.40;;;;;;5033239;28;20041;-73
2021/09/01 04:04:06;;;;;;;6.15;1.73;;;17.80;84.50;;;;;;5033786;28;20060;-74
2021/09/01 04:06:33;;;;;;;11.98;2.33;;;17.80;84.40;;;;;;5034117;28;20036;-74
2021/09/01 04:08:59;;;;;;;5.22;1.52;;;17.70;84.30;;;;;;5034145;28;20025;-74
2021/09/01 04:11:25;;;;;;;7.05;2.25;;;17.70;84.30;;;;;;5042867;28;20025;-74
2021/09/01 04:13:51;;;;;;;7.38;2.05;;;17.70;84.40;;;;;;5033635;28;20028;-77
2021/09/01 04:16:16;;;;;;;6.20;2.25;;;17.70;84.30;;;;;;5040478;28;20064;-74
2021/09/01 04:18:42;;;;;;;4.40;1.45;;;17.70;84.30;;;;;;5038155;28;20384;-74
2021/09/01 04:21:08;;;;;;;5.32;1.77;;;17.70;84.40;;;;;;5038533;28;20029;-74
2021/09/01 04:23:33;;;;;;;6.97;1.83;;;17.70;84.40;;;;;;5041176;28;20023;-75
2021/09/01 04:25:59;;;;;;;3.38;1.40;;;17.70;84.30;;;;;;5044061;28;20023;-74
2021/09/01 04:28:25;;;;;;;7.90;2.30;;;17.70;84.40;;;;;;5045042;28;20484;-75
2021/09/01 04:30:50;;;;;;;4.18;2.03;;;17.70;84.50;;;;;;5052392;28;20124;-74
2021/09/01 04:33:16;;;;;;;6.78;1.70;;;17.70;84.40;;;;;;5042004;28;20071;-76
2021/09/01 04:35:43;;;;;;;7.78;1.77;;;17.70;84.20;;;;;;5040760;28;20080;-76
2021/09/01 04:38:09;;;;;;;6.32;2.00;;;17.70;84.10;;;;;;5032766;28;20025;-76
2021/09/01 04:40:35;;;;;;;12.13;2.40;;;17.70;83.90;;;;;;5037068;28;20029;-76
2021/09/01 04:43:00;;;;;;;5.47;1.60;;;17.70;83.80;;;;;;5035240;28;20605;-76
2021/09/01 04:45:26;;;;;;;5.20;1.33;;;17.70;83.70;;;;;;5038617;28;20024;-76
2021/09/01 04:47:52;;;;;;;4.85;1.70;;;17.70;83.60;;;;;;5045290;28;20030;-76
2021/09/01 04:50:17;;;;;;;6.03;2.28;;;17.60;83.50;;;;;;5047749;28;20029;-75
2021/09/01 04:52:43;;;;;;;7.32;1.50;;;17.60;83.50;;;;;;5041909;28;20032;-82
2021/09/01 04:55:09;;;;;;;4.28;1.42;;;17.70;83.50;;;;;;5031425;28;20017;-84
2021/09/01 04:57:35;;;;;;;5.82;2.08;;;17.70;83.40;;;;;;5030356;28;20021;-82
2021/09/01 05:00:03;;;;;;;6.05;1.52;;;17.70;83.40;;;;;;5029029;28;20052;-84
2021/09/01 05:02:29;;;;;;;5.80;1.67;;;17.70;83.40;;;;;;5034036;28;20041;-82
2021/09/01 05:04:54;;;;;;;6.53;1.88;;;17.70;83.30;;;;;;5030230;28;20029;-82
2021/09/01 05:07:20;;;;;;;5.38;1.75;;;17.70;83.40;;;;;;5029629;28;20022;-84
2021/09/01 05:09:45;;;;;;;5.82;1.45;;;17.70;83.30;;;;;;5029204;28;20022;-85
2021/09/01 05:12:11;;;;;;;6.32;2.15;;;17.70;83.30;;;;;;5029584;28;20461;-84
2021/09/01 05:14:37;;;;;;;4.18;1.55;;;17.80;83.20;;;;;;5031087;28;20104;-84
2021/09/01 05:17:03;;;;;;;4.10;1.73;;;17.80;83.20;;;;;;5045832;28;20031;-85
2021/09/01 05:19:28;;;;;;;5.72;1.60;;;17.70;83.10;;;;;;5035311;28;20025;-84
2021/09/01 05:21:55;;;;;;;6.63;1.67;;;17.80;83.10;;;;;;5057888;28;20048;-83
2021/09/01 05:24:59;;;;;;;8.02;1.52;;;17.80;83.10;;;;;;5049880;28;20039;-83
2021/09/01 05:27:26;;;;;;;5.10;1.17;;;17.80;83.10;;;;;;5036170;28;20106;-83
2021/09/01 05:29:52;;;;;;;4.15;1.25;;;17.80;83.00;;;;;;5052954;28;20508;-84
2021/09/01 05:32:24;;;;;;;6.82;2.15;;;17.80;82.90;;;;;;5044364;28;20035;-84
2021/09/01 05:34:53;;;;;;;4.13;1.70;;;17.80;83.20;;;;;;5035106;28;20030;-73
2021/09/01 05:37:19;;;;;;;5.53;1.52;;;17.80;83.20;;;;;;5032350;28;20026;-73
2021/09/01 05:39:47;;;;;;;6.30;2.40;;;17.80;83.10;;;;;;5031791;28;20053;-73
2021/09/01 05:42:17;;;;;;;4.85;1.55;;;17.70;83.10;;;;;;5030547;28;20054;-73
2021/09/01 05:44:43;;;;;;;6.57;1.75;;;17.80;83.10;;;;;;5032552;28;20029;-73
2021/09/01 05:47:11;;;;;;;4.22;1.63;;;17.80;83.70;;;;;;5031630;28;20454;-73
2021/09/01 05:49:37;;;;;;;4.75;1.73;;;17.80;82.80;;;;;;5031763;28;20063;-73
2021/09/01 05:52:05;;;;;;;4.68;1.83;;;17.80;82.80;;;;;;5031402;28;20025;-73
2021/09/01 05:54:31;;;;;;;5.45;1.67;;;17.80;83.00;;;;;;5031970;28;20025;-73
2021/09/01 05:57:17;;;;;;;5.55;1.50;;;17.80;83.00;;;;;;5031441;28;20026;-73
2021/09/01 05:59:49;;;;;;;9.02;3.17;;;17.80;82.90;;;;;;5032123;28;20101;-73
2021/09/01 06:02:20;;;;;;;4.50;1.70;;;17.80;82.80;;;;;;5030472;28;20091;-73
2021/09/01 06:04:46;;;;;;;2.10;1.08;;;17.80;83.00;;;;;;5031972;28;20029;-73
2021/09/01 06:07:17;;;;;;;2.90;1.40;;;17.80;82.90;;;;;;5031183;28;20021;-73
2021/09/01 06:09:45;;;;;;;4.85;1.70;;;17.80;82.80;;;;;;5031881;28;20022;-73
2021/09/01 06:12:18;;;;;;;4.78;1.60;;;17.80;82.50;;;;;;5030854;28;20221;-73
2021/09/01 06:14:43;;;;;;;6.93;1.90;;;17.90;82.30;;;;;;5030593;28;20078;-73
2021/09/01 06:17:09;;;;;;;4.25;1.23;;;17.80;82.20;;;;;;5031290;28;20100;-73
2021/09/01 06:19:36;;;;;;;2.75;1.40;;;17.90;82.30;;;;;;5031995;28;20037;-73
2021/09/01 06:22:01;;;;;;;4.47;1.02;;;17.90;82.10;;;;;;5031055;28;20030;-73
2021/09/01 06:24:27;;;;;;;4.63;1.50;;;17.90;82.10;;;;;;5032006;28;20030;-73
2021/09/01 06:26:53;;;;;;;3.22;1.38;;;18.00;82.20;;;;;;5030873;28;20556;-73
2021/09/01 06:29:18;;;;;;;3.15;1.40;;;18.00;82.00;;;;;;5031484;28;20487;-73
2021/09/01 06:31:44;;;;;;;3.65;1.60;;;18.00;82.00;;;;;;5031392;28;20030;-73
2021/09/01 06:34:10;;;;;;;3.38;1.60;;;18.00;81.90;;;;;;5030738;28;20465;-73
2021/09/01 06:36:35;;;;;;;6.18;1.75;;;18.00;81.70;;;;;;5031603;28;20040;-73
2021/09/01 06:39:01;;;;;;;4.60;1.52;;;18.00;81.50;;;;;;5030965;28;20036;-73
2021/09/01 06:41:27;;;;;;;4.07;1.55;;;18.00;81.40;;;;;;5031320;28;20436;-72
2021/09/01 06:43:53;;;;;;;5.13;1.48;;;18.10;81.30;;;;;;5031075;28;20099;-73
2021/09/01 06:46:18;;;;;;;5.00;1.63;;;18.00;81.30;;;;;;5030204;28;20025;-73
2021/09/01 06:48:44;;;;;;;6.20;1.70;;;18.10;81.20;;;;;;5031529;28;20085;-73
2021/09/01 06:51:10;;;;;;;3.35;1.58;;;18.10;81.00;;;;;;5030578;28;20393;-73
2021/09/01 06:53:35;;;;;;;6.22;2.13;;;18.00;80.90;;;;;;5031419;28;20088;-73
2021/09/01 06:56:01;;;;;;;3.67;1.27;;;18.00;81.00;;;;;;5030922;28;20037;-73
2021/09/01 06:58:28;;;;;;;1.65;0.90;;;18.00;81.00;;;;;;5031288;28;20028;-73
2021/09/01 07:00:53;;;;;;;3.35;1.33;;;18.00;81.00;;;;;;5030842;28;20076;-73
2021/09/01 07:03:19;;;;;;;4.47;2.03;;;18.00;80.90;;;;;;5031404;28;20029;-72
2021/09/01 07:05:45;;;;;;;5.75;1.73;;;18.00;81.00;;;;;;5031339;28;20076;-73
2021/09/01 07:08:16;;;;;;;5.68;1.60;;;18.00;81.00;;;;;;5030423;28;20020;-74
2021/09/01 07:10:42;;;;;;;;;;;18.10;81.80;;;;;;5031895;28;20068;-74
2021/09/01 07:13:08;;;;;;;4.32;1.50;;;18.10;81.20;;;;;;5030796;28;19905;-73
2021/09/01 07:15:33;;;;;;;3.63;1.50;;;18.10;81.00;;;;;;5031498;28;20044;-74
2021/09/01 07:17:59;;;;;;;4.45;1.27;;;18.10;81.20;;;;;;5030834;28;20057;-74
2021/09/01 07:20:25;;;;;;;3.42;1.20;;;18.10;81.20;;;;;;5031237;28;20032;-74
2021/09/01 07:22:51;;;;;;;5.43;1.60;;;18.10;81.10;;;;;;5031240;28;20036;-74
2021/09/01 07:25:17;;;;;;;5.15;1.58;;;18.20;81.10;;;;;;5033268;28;20030;-74
2021/09/01 07:27:42;;;;;;;3.75;1.45;;;18.20;81.00;;;;;;5034966;28;20413;-74
2021/09/01 07:30:08;;;;;;;4.13;1.67;;;18.30;81.00;;;;;;5034071;28;20025;-74
2021/09/01 07:32:34;;;;;;;5.97;1.52;;;18.40;81.00;;;;;;5033319;28;20385;-74
2021/09/01 07:35:01;;;;;;;4.05;1.50;;;18.40;80.90;;;;;;5033993;28;20014;-74
2021/09/01 07:37:26;;;;;;;3.85;1.42;;;18.50;80.80;;;;;;5034627;28;20028;-74
2021/09/01 07:39:52;;;;;;;3.58;1.58;;;18.50;80.80;;;;;;5034572;28;20026;-74
2021/09/01 07:42:18;;;;;;;5.40;1.70;;;18.50;80.60;;;;;;5033584;28;20091;-74
2021/09/01 07:44:44;;;;;;;3.80;1.60;;;18.60;80.50;;;;;;5034193;28;20030;-73
2021/09/01 07:47:09;;;;;;;3.83;1.60;;;18.60;80.30;;;;;;5033702;28;20553;-75
2021/09/01 07:49:35;;;;;;;5.63;1.40;;;18.70;80.30;;;;;;5034608;28;20104;-73
2021/09/01 07:52:01;;;;;;;4.78;1.58;;;18.70;80.20;;;;;;5033433;28;20068;-74
2021/09/01 07:54:27;;;;;;;2.90;1.60;;;18.70;80.20;;;;;;5034308;28;20052;-74
2021/09/01 07:56:53;;;;;;;5.28;1.63;;;18.80;80.20;;;;;;5034302;28;20018;-74
2021/09/01 07:59:18;;;;;;;4.05;1.50;;;18.80;80.10;;;;;;5033506;28;20484;-74
2021/09/01 08:01:44;;;;;;;3.38;1.45;;;18.80;80.00;;;;;;5034246;28;20509;-74
2021/09/01 08:04:10;;;;;;;5.13;1.75;;;18.70;79.90;;;;;;5033464;28;20477;-74
2021/09/01 08:06:35;;;;;;;4.82;1.63;;;18.80;79.90;;;;;;5034172;28;20032;-75
2021/09/01 08:09:01;;;;;;;4.88;1.67;;;18.80;80.10;;;;;;5033477;28;20311;-75
2021/09/01 08:11:27;;;;;;;6.18;1.55;;;18.80;80.00;;;;;;5033544;28;20484;-74
2021/09/01 08:13:52;;;;;;;3.53;1.58;;;18.80;79.80;;;;;;5033796;28;20025;-75
2021/09/01 08:16:18;;;;;;;5.43;1.58;;;18.80;79.70;;;;;;5031730;28;20017;-74
2021/09/01 08:18:44;;;;;;;7.28;1.52;;;18.80;79.60;;;;;;5033837;28;20592;-74
2021/09/01 08:21:09;;;;;;;2.22;1.48;;;18.80;79.40;;;;;;5032813;28;20040;-74
2021/09/01 08:23:35;;;;;;;6.32;1.88;;;18.90;79.40;;;;;;5032314;28;20045;-74
2021/09/01 08:26:01;;;;;;;3.78;1.30;;;18.90;79.40;;;;;;5033127;28;20025;-73
2021/09/01 08:28:26;;;;;;;4.90;1.90;;;18.90;79.30;;;;;;5033496;28;20017;-74
2021/09/01 08:30:52;;;;;;;2.85;1.58;;;18.80;79.20;;;;;;5033323;28;20123;-73
2021/09/01 08:33:17;;;;;;;3.75;1.35;;;18.80;79.20;;;;;;5032915;28;20244;-74
2021/09/01 08:35:43;;;;;;;7.28;1.67;;;18.80;79.20;;;;;;5032172;28;20029;-74
2021/09/01 08:38:09;;;;;;;5.10;1.77;;;18.90;79.00;;;;;;5032623;28;20029;-74
2021/09/01 08:40:35;;;;;;;4.20;1.50;;;18.90;79.00;;;;;;5033365;28;20064;-74
2021/09/01 08:43:01;;;;;;;5.25;1.50;;;18.90;78.90;;;;;;5032594;28;20057;-75
2021/09/01 08:45:26;;;;;;;3.13;1.40;;;18.90;78.90;;;;;;5033315;28;20021;-74
2021/09/01 08:47:55;;;;;;;6.93;1.80;;;19.00;78.80;;;;;;5032924;28;20021;-75
2021/09/01 08:50:21;;;;;;;4.85;1.65;;;18.90;78.60;;;;;;5032311;28;20026;-74
2021/09/01 08:52:46;;;;;;;4.88;1.42;;;18.90;78.80;;;;;;5033018;28;20028;-74
2021/09/01 08:55:14;;;;;;;5.78;1.60;;;19.00;79.00;;;;;;5032509;28;20021;-74
2021/09/01 08:57:40;;;;;;;3.72;1.48;;;19.00;78.90;;;;;;5031809;28;20025;-74
2021/09/01 09:00:07;;;;;;;4.53;1.35;;;19.10;78.70;;;;;;5032141;28;20036;-72
2021/09/01 09:02:33;;;;;;;2.38;1.40;;;19.20;78.70;;;;;;5032936;28;20030;-73
2021/09/01 09:05:04;;;;;;;4.03;1.70;;;19.20;78.70;;;;;;5032874;28;20032;-73
2021/09/01 09:07:30;;;;;;;;;;;19.30;78.40;;;;;;5033391;28;20021;-73
2021/09/01 09:09:57;;;;;;;2.92;1.10;;;19.40;78.30;;;;;;5033038;28;19912;-73
2021/09/01 09:12:30;;;;;;;4.38;1.58;;;19.50;78.00;;;;;;5032073;28;20037;-73
2021/09/01 09:14:57;;;;;;;3.70;1.10;;;19.50;77.80;;;;;;5031308;28;20022;-73
2021/09/01 09:17:23;;;;;;;3.47;1.10;;;19.50;77.60;;;;;;5031997;28;20488;-73
2021/09/01 09:19:55;;;;;;;5.40;1.38;;;19.60;77.50;;;;;;5032715;28;20025;-73
2021/09/01 09:22:23;;;;;;;4.32;1.60;;;19.60;77.30;;;;;;5031936;28;20124;-73
2021/09/01 09:25:04;;;;;;;5.35;1.40;;;19.70;77.20;;;;;;5032535;28;20021;-73
2021/09/01 09:28:02;;;;;;;3.40;1.48;;;19.70;76.70;;;;;;5032633;28;20013;-73
2021/09/01 09:30:32;;;;;;;3.83;1.38;;;19.80;76.60;;;;;;5009600;28;20049;-73
2021/09/01 09:33:02;;;;;;;3.92;1.50;;;19.80;76.70;;;;;;5032424;28;20469;-73
2021/09/01 09:36:04;;;;;;;3.10;1.20;;;19.90;76.50;;;;;;5032613;28;20438;-73
2021/09/01 09:38:41;;;;;;;;;;;20.00;76.40;;;;;;5032786;28;20026;-73
2021/09/01 09:41:08;;;;;;;4.03;1.27;;;20.00;76.50;;;;;;5031634;28;20015;-73
2021/09/01 09:43:35;;;;;;;3.85;1.08;;;20.00;76.30;;;;;;5032370;28;20104;-73
2021/09/01 09:46:07;;;;;;;1.48;0.90;;;20.00;76.30;;;;;;5032044;28;20022;-73
2021/09/01 09:48:35;;;;;;;4.35;1.67;;;20.00;76.20;;;;;;5031964;28;20049;-73
2021/09/01 09:51:03;;;;;;;3.67;1.83;;;20.00;76.20;;;;;;5032130;28;20025;-73
2021/09/01 09:53:30;;;;;;;5.18;1.25;;;20.00;76.30;;;;;;5032193;28;20047;-73
2021/09/01 09:56:19;;;;;;;7.65;1.60;;;20.00;76.30;;;;;;5032120;28;20021;-73
2021/09/01 09:58:48;;;;;;;3.22;1.30;;;20.10;76.00;;;;;;5032072;28;20018;-72
2021/09/01 10:01:15;;;;;;;6.07;1.75;;;20.10;76.10;;;;;;5031317;28;20029;-73
2021/09/01 10:03:41;;;;;;;7.40;1.85;;;20.10;75.80;;;;;;5031869;28;20033;-73
2021/09/01 10:06:09;;;;;;;3.33;1.60;;;20.10;75.70;;;;;;5031294;28;20014;-73
2021/09/01 10:08:37;;;;;;;1.92;1.00;;;20.10;75.50;;;;;;5031604;28;20056;-73
2021/09/01 10:11:10;;;;;;;4.85;1.08;;;20.20;75.60;;;;;;5031776;28;20462;-73
2021/09/01 10:13:39;;;;;;;4.90;1.65;;;20.20;75.20;;;;;;5031531;28;20444;-73
2021/09/01 10:16:20;;;;;;;2.75;1.10;;;20.20;75.20;;;;;;5030182;28;20033;-73
2021/09/01 10:19:14;;;;;;;5.65;1.55;;;20.30;75.00;;;;;;5031840;28;20029;-74
2021/09/01 10:21:51;;;;;;;4.88;1.50;;;20.30;74.60;;;;;;5030468;28;20048;-73
2021/09/01 10:24:23;;;;;;;8.68;1.65;;;20.30;74.80;;;;;;5031214;28;20022;-74
2021/09/01 10:27:05;;;;;;;3.30;1.35;;;20.40;74.70;;;;;;5032092;28;20119;-74
2021/09/01 10:29:59;;;;;;;3.13;1.42;;;20.40;74.40;;;;;;5030796;28;20033;-74
2021/09/01 10:32:26;;;;;;;4.40;1.40;;;20.40;74.30;;;;;;5029831;28;20025;-74
2021/09/01 10:35:16;;;;;;;4.88;1.70;;;20.30;74.70;;;;;;5031757;28;20017;-74
2021/09/01 10:37:50;;;;;;;4.15;1.40;;;20.20;74.80;;;;;;5031883;28;20025;-74
2021/09/01 10:40:22;;;;;;;4.82;1.42;;;20.10;75.20;;;;;;5030947;28;20049;-74
2021/09/01 10:42:52;;;;;;;4.65;1.48;;;20.10;75.00;;;;;;5031448;28;20050;-73
2021/09/01 10:45:23;;;;;;;3.20;1.20;;;20.10;75.10;;;;;;5030810;28;20405;-74
2021/09/01 10:47:51;;;;;;;3.67;1.48;;;20.10;75.00;;;;;;5031770;28;20030;-74
2021/09/01 10:50:23;;;;;;;3.33;1.60;;;20.10;75.10;;;;;;5029598;28;20032;-74
2021/09/01 10:52:59;;;;;;;4.78;1.63;;;20.00;75.00;;;;;;5031413;28;20033;-74
2021/09/01 10:55:26;;;;;;;5.43;1.73;;;20.00;75.30;;;;;;5030979;28;20025;-74
2021/09/01 10:58:14;;;;;;;5.28;2.40;;;20.10;75.50;;;;;;5031408;28;20032;-74
2021/09/01 11:00:41;;;;;;;3.90;1.58;;;20.10;75.60;;;;;;5035075;28;20018;-74
2021/09/01 11:03:06;;;;;;;6.53;1.90;;;20.20;75.40;;;;;;5033847;28;20029;-73
2021/09/01 11:05:32;;;;;;;3.13;1.27;;;20.20;75.30;;;;;;5034473;28;20477;-73
2021/09/01 11:07:58;;;;;;;5.35;1.40;;;20.30;75.90;;;;;;5035217;28;20100;-74
2021/09/01 11:10:26;;;;;;;4.20;1.88;;;20.30;75.10;;;;;;5034447;28;20032;-72
2021/09/01 11:13:02;;;;;;;5.10;1.33;;;20.40;74.80;;;;;;5035167;28;20064;-74
2021/09/01 11:15:42;;;;;;;8.43;2.05;;;20.40;74.40;;;;;;5034295;28;20032;-74
2021/09/01 11:18:08;;;;;;;3.40;1.25;;;20.50;74.50;;;;;;5035272;28;20079;-74
2021/09/01 11:20:35;;;;;;;2.95;1.25;;;20.60;74.40;;;;;;5034479;28;20025;-74
2021/09/01 11:23:03;;;;;;;3.45;1.50;;;20.70;74.10;;;;;;5034343;28;20025;-75
2021/09/01 11:25:30;;;;;;;3.17;1.35;;;20.80;74.70;;;;;;5034508;28;20029;-75
2021/09/01 11:27:57;;;;;;;3.03;1.23;;;20.90;73.60;;;;;;5034733;28;20481;-75
2021/09/01 11:30:31;;;;;;;2.95;1.17;;;21.00;73.60;;;;;;5034018;28;20021;-76
2021/09/01 11:32:58;;;;;;;6.78;1.33;;;21.10;73.00;;;;;;5034736;28;20029;-76
2021/09/01 11:35:25;;;;;;;6.55;1.75;;;21.00;73.20;;;;;;5033553;28;20036;-73
2021/09/01 11:37:58;;;;;;;8.00;1.50;;;21.00;73.10;;;;;;5034489;28;20017;-73
2021/09/01 11:40:42;;;;;;;3.45;1.58;;;21.00;73.00;;;;;;5033730;28;20021;-73
2021/09/01 11:43:20;;;;;;;5.25;1.60;;;20.90;73.10;;;;;;5034313;28;20049;-74
2021/09/01 11:45:51;;;;;;;3.55;1.08;;;20.90;73.20;;;;;;5034110;28;20030;-74
2021/09/01 11:48:17;;;;;;;3.05;1.42;;;20.90;73.10;;;;;;5033626;28;20021;-75
2021/09/01 11:50:45;;;;;;;5.40;1.33;;;20.80;73.00;;;;;;5034310;28;20030;-74
2021/09/01 11:53:15;;;;;;;6.70;1.60;;;20.80;73.00;;;;;;5033800;28;20025;-75
2021/09/01 11:55:42;;;;;;;3.15;1.30;;;20.70;73.00;;;;;;5033021;28;20021;-75
2021/09/01 11:58:15;;;;;;;4.82;1.42;;;20.60;73.10;;;;;;5034105;28;20022;-74
2021/09/01 12:00:42;;;;;;;4.38;1.50;;;20.60;73.40;;;;;;5034146;28;20056;-75
2021/09/01 12:03:12;;;;;;;3.67;1.60;;;20.50;73.60;;;;;;5033948;28;20100;-73
2021/09/01 12:05:41;;;;;;;3.05;1.25;;;20.50;73.90;;;;;;5033885;28;20056;-75
2021/09/01 12:08:18;;;;;;;2.97;1.30;;;20.50;74.00;;;;;;5033967;28;20022;-74
2021/09/01 12:10:45;;;;;;;2.42;1.27;;;20.50;73.80;;;;;;5033231;28;20021;-73
2021/09/01 12:13:11;;;;;;;4.90;1.95;;;20.40;74.10;;;;;;5033612;28;20029;-74
2021/09/01 12:15:37;;;;;;;4.70;1.42;;;20.40;74.30;;;;;;5031971;28;20084;-74
2021/09/01 12:18:05;;;;;;;3.70;1.40;;;20.40;74.30;;;;;;5033722;28;20509;-73
2021/09/01 12:20:34;;;;;;;4.13;1.40;;;20.40;74.50;;;;;;5032675;28;20420;-72
2021/09/01 12:23:12;;;;;;;4.50;1.67;;;20.40;74.70;;;;;;5033592;28;20074;-72
2021/09/01 12:25:37;;;;;;;3.15;1.33;;;20.40;74.80;;;;;;5031792;28;20100;-73
2021/09/01 12:28:07;;;;;;;4.18;1.80;;;20.40;74.70;;;;;;5033587;28;20511;-73
2021/09/01 12:30:35;;;;;;;2.50;1.30;;;20.40;74.60;;;;;;5032951;28;20025;-73
2021/09/01 12:33:05;;;;;;;4.18;1.30;;;20.40;74.70;;;;;;5032445;28;20033;-73
2021/09/01 12:35:33;;;;;;;3.17;1.13;;;20.40;74.90;;;;;;5032873;28;20018;-72
2021/09/01 12:38:01;;;;;;;4.50;1.33;;;20.40;74.80;;;;;;5032359;28;20359;-73
2021/09/01 12:40:37;;;;;;;1.65;0.80;;;20.40;74.50;;;;;;5032606;28;20163;-73
2021/09/01 12:43:12;;;;;;;3.17;1.30;;;20.50;74.70;;;;;;5033216;28;20049;-73
2021/09/01 12:45:44;;;;;;;3.30;1.60;;;20.60;74.80;;;;;;5032540;28;20025;-73
2021/09/01 12:48:17;;;;;;;4.55;1.52;;;20.60;74.60;;;;;;5033268;28;20013;-73
2021/09/01 12:50:47;;;;;;;3.90;1.40;;;20.80;74.50;;;;;;5032896;28;20108;-74
2021/09/01 12:53:21;;;;;;;6.57;1.95;;;20.90;74.20;;;;;;5015430;28;20022;-75
2021/09/01 12:55:48;;;;;;;2.78;1.30;;;20.90;73.90;;;;;;5033359;28;20444;-73